createdAt,value
2018-06-21T00:03:54.913Z,79.80
2018-06-21T00:07:58.773Z,79.10
2018-06-21T00:12:02.544Z,78.70
2018-06-21T00:16:06.247Z,79.50
2018-06-21T00:20:09.777Z,79.30
2018-06-21T00:24:13.941Z,80.10
2018-06-21T00:28:18.119Z,80.40
2018-06-21T00:32:22.346Z,79.60
2018-06-21T00:36:25.968Z,79.90
2018-06-21T00:40:29.553Z,79.40
2018-06-21T00:44:33.066Z,80.10
2018-06-21T00:48:39.035Z,80.30
2018-06-21T00:52:43.053Z,79.80
2018-06-21T00:56:47.286Z,79.90
2018-06-21T01:00:51.165Z,80.80
2018-06-21T01:04:54.792Z,81.50
2018-06-21T01:08:58.443Z,81.50
2018-06-21T01:13:02.127Z,81.50
2018-06-21T01:17:06.433Z,82.00
2018-06-21T01:21:09.975Z,82.00
2018-06-21T01:25:13.944Z,82.10
2018-06-21T01:29:18.406Z,81.60
2018-06-21T01:33:22.221Z,81.40
2018-06-21T01:37:25.778Z,81.80
2018-06-21T01:41:29.292Z,81.90
2018-06-21T01:45:33.031Z,82.10
2018-06-21T01:49:36.634Z,82.00
2018-06-21T01:53:40.284Z,81.80
2018-06-21T01:57:44.248Z,81.60
2018-06-21T02:01:48.187Z,82.30
2018-06-21T02:05:51.712Z,82.10
2018-06-21T02:09:55.273Z,82.00
2018-06-21T02:13:59.057Z,81.70
2018-06-21T02:18:02.821Z,81.50
2018-06-21T02:22:06.368Z,81.70
2018-06-21T02:26:10.007Z,81.90
2018-06-21T02:30:14.115Z,82.00
2018-06-21T02:34:18.325Z,81.90
2018-06-21T02:38:22.073Z,81.60
2018-06-21T02:42:25.719Z,81.40
2018-06-21T02:46:29.293Z,81.50
2018-06-21T02:50:32.952Z,81.90
2018-06-21T02:54:36.952Z,81.80
2018-06-21T02:58:40.509Z,82.60
2018-06-21T03:02:44.501Z,81.90
2018-06-21T03:06:48.383Z,81.90
2018-06-21T03:10:52.048Z,81.50
2018-06-21T03:15:03.180Z,82.00
2018-06-21T03:19:06.703Z,82.00
2018-06-21T03:23:10.218Z,81.80
2018-06-21T03:27:14.507Z,81.80
2018-06-21T03:31:18.499Z,82.10
2018-06-21T03:35:22.011Z,83.00
2018-06-21T03:39:25.541Z,81.80
2018-06-21T03:43:29.075Z,81.50
2018-06-21T03:47:33.198Z,81.30
2018-06-21T03:55:39.915Z,81.50
2018-06-21T03:59:44.379Z,82.20
2018-06-21T04:03:48.403Z,82.60
2018-06-21T04:07:52.225Z,82.40
2018-06-21T04:11:55.869Z,82.10
2018-06-21T04:15:59.427Z,81.70
2018-06-21T04:20:03.148Z,82.50
2018-06-21T04:24:07.059Z,80.90
2018-06-21T04:28:11.756Z,83.10
2018-06-21T04:32:16.083Z,81.40
2018-06-21T04:36:20.307Z,80.80
2018-06-21T04:40:24.180Z,81.50
2018-06-21T04:44:28.241Z,81.60
2018-06-21T04:48:32.080Z,82.00
2018-06-21T04:52:36.015Z,81.80
2018-06-21T04:56:39.554Z,83.10
2018-06-21T05:00:44.638Z,83.00
2018-06-21T05:04:48.956Z,83.20
2018-06-21T05:08:53.365Z,83.20
2018-06-21T05:12:56.893Z,83.30
2018-06-21T05:17:00.851Z,82.90
2018-06-21T05:21:04.702Z,83.20
2018-06-21T05:25:08.380Z,83.90
2018-06-21T05:29:12.136Z,82.70
2018-06-21T05:33:16.009Z,82.20
2018-06-21T05:37:19.856Z,82.20
2018-06-21T05:41:31.064Z,81.80
2018-06-21T05:45:35.311Z,81.00
2018-06-21T05:49:38.947Z,80.70
2018-06-21T05:53:44.981Z,79.60
2018-06-21T05:57:49.574Z,78.30
2018-06-21T06:01:53.216Z,75.20
2018-06-21T06:05:56.893Z,73.50
2018-06-21T06:10:00.475Z,72.20
2018-06-21T06:14:04.244Z,71.10
2018-06-21T06:18:08.014Z,70.70
2018-06-21T06:22:11.575Z,71.00
2018-06-21T06:26:15.586Z,71.00
2018-06-21T06:30:19.606Z,70.00
2018-06-21T06:34:23.167Z,68.70
2018-06-21T06:38:26.745Z,68.50
2018-06-21T06:42:30.521Z,66.50
2018-06-21T06:46:34.239Z,65.00
2018-06-21T06:50:37.811Z,64.00
2018-06-21T06:54:41.536Z,62.00
2018-06-21T06:58:45.340Z,60.40
2018-06-21T07:02:49.217Z,60.80
2018-06-21T07:06:53.040Z,58.50
2018-06-21T07:10:56.840Z,57.70
2018-06-21T07:15:00.377Z,60.60
2018-06-21T07:19:04.953Z,61.40
2018-06-21T07:23:08.709Z,63.90
2018-06-21T07:27:13.217Z,64.30
2018-06-21T07:31:16.909Z,64.60
2018-06-21T07:35:20.614Z,68.20
2018-06-21T07:39:24.415Z,66.30
2018-06-21T07:43:28.115Z,66.40
2018-06-21T07:47:31.837Z,67.20
2018-06-21T07:51:35.588Z,67.30
2018-06-21T07:55:39.155Z,68.10
2018-06-21T07:59:43.235Z,69.20
2018-06-21T08:03:47.178Z,72.30
2018-06-21T08:07:50.871Z,71.10
2018-06-21T08:11:54.420Z,71.40
2018-06-21T08:15:58.186Z,71.30
2018-06-21T08:20:01.846Z,72.30
2018-06-21T08:24:07.040Z,73.20
2018-06-21T08:28:10.588Z,73.80
2018-06-21T08:32:14.400Z,72.80
2018-06-21T08:36:18.106Z,74.30
2018-06-21T08:40:21.696Z,74.50
2018-06-21T08:44:25.338Z,75.60
2018-06-21T08:48:28.868Z,75.80
2018-06-21T08:52:34.649Z,75.80
2018-06-21T08:56:38.243Z,77.80
2018-06-21T09:00:41.885Z,77.40
2018-06-21T09:04:45.908Z,76.30
2018-06-21T09:08:49.764Z,77.40
2018-06-21T09:12:53.391Z,77.50
2018-06-21T09:16:56.875Z,76.90
2018-06-21T09:21:00.877Z,75.70
2018-06-21T09:25:04.459Z,75.50
2018-06-21T09:29:08.054Z,75.30
2018-06-21T09:33:11.620Z,77.10
2018-06-21T09:37:15.534Z,75.20
2018-06-21T09:41:24.663Z,73.30
2018-06-21T09:47:39.519Z,73.00
2018-06-21T09:51:43.511Z,73.20
2018-06-21T09:55:48.110Z,72.10
2018-06-21T09:59:51.614Z,73.50
2018-06-21T10:03:55.170Z,73.30
2018-06-21T10:07:58.698Z,72.00
2018-06-21T10:12:02.447Z,71.30
2018-06-21T10:16:06.066Z,74.20
2018-06-21T10:20:10.167Z,72.10
2018-06-21T10:24:14.068Z,74.40
2018-06-21T10:28:19.234Z,72.10
2018-06-21T10:32:22.958Z,70.40
2018-06-21T10:36:27.233Z,72.20
2018-06-21T10:40:30.806Z,66.70
2018-06-21T10:44:34.522Z,72.80
2018-06-21T10:48:38.221Z,73.00
2018-06-21T10:52:42.231Z,70.30
2018-06-21T10:56:46.231Z,72.00
2018-06-21T11:00:49.926Z,68.60
2018-06-21T11:04:53.473Z,66.40
2018-06-21T11:09:00.434Z,63.00
2018-06-21T11:13:04.235Z,62.20
2018-06-21T11:17:07.896Z,66.30
2018-06-21T11:21:11.460Z,62.80
2018-06-21T11:25:23.102Z,63.90
2018-06-21T11:29:26.631Z,61.50
2018-06-21T11:33:32.375Z,60.20
2018-06-21T11:37:35.918Z,62.90
2018-06-21T11:41:39.509Z,61.90
2018-06-21T11:45:43.229Z,63.70
2018-06-21T11:49:51.600Z,62.50
2018-06-21T11:53:55.176Z,62.20
2018-06-21T11:58:03.110Z,63.00
2018-06-21T12:02:12.458Z,61.90
2018-06-21T12:06:16.200Z,60.50
2018-06-21T12:10:19.954Z,59.90
2018-06-21T12:14:24.386Z,59.90
2018-06-21T12:22:31.209Z,56.10
2018-06-21T12:26:34.871Z,59.40
2018-06-21T12:30:38.496Z,58.90
2018-06-21T12:34:42.068Z,52.50
2018-06-21T12:38:49.307Z,48.80
2018-06-21T12:42:52.825Z,52.00
2018-06-21T12:46:56.361Z,52.30
2018-06-21T12:50:59.887Z,52.70
2018-06-21T12:55:03.676Z,57.40
2018-06-21T12:59:07.275Z,56.60
2018-06-21T13:03:10.829Z,55.50
2018-06-21T13:07:14.514Z,51.30
2018-06-21T13:11:37.040Z,51.90
2018-06-21T13:15:40.738Z,50.10
2018-06-21T13:19:44.803Z,54.40
2018-06-21T13:23:48.595Z,49.00
2018-06-21T13:27:57.776Z,50.00
2018-06-21T13:32:02.165Z,53.40
2018-06-21T13:36:05.844Z,53.40
2018-06-21T13:40:09.420Z,50.90
2018-06-21T13:44:13.107Z,57.70
2018-06-21T13:48:16.884Z,54.70
2018-06-21T13:56:23.923Z,55.80
2018-06-21T14:00:27.464Z,52.20
2018-06-21T14:04:31.015Z,50.10
2018-06-21T14:08:35.030Z,53.10
2018-06-21T14:12:38.326Z,53.40
2018-06-21T14:16:41.930Z,46.80
2018-06-21T14:20:45.925Z,51.00
2018-06-21T14:24:49.884Z,55.10
2018-06-21T14:28:55.192Z,54.20
2018-06-21T14:32:58.763Z,48.00
2018-06-21T14:37:04.769Z,52.90
2018-06-21T14:41:08.348Z,48.10
2018-06-21T14:45:11.947Z,49.10
2018-06-21T14:49:16.601Z,50.80
2018-06-21T14:53:21.152Z,44.60
2018-06-21T14:57:24.723Z,45.20
2018-06-21T15:01:33.002Z,46.20
2018-06-21T15:05:36.676Z,53.50
2018-06-21T15:09:47.256Z,51.70
2018-06-21T15:13:52.529Z,52.60
2018-06-21T15:17:56.114Z,56.20
2018-06-21T15:22:01.947Z,45.40
2018-06-21T15:26:05.695Z,46.90
2018-06-21T15:30:15.926Z,55.70
2018-06-21T15:34:21.995Z,52.70
2018-06-21T15:38:26.647Z,45.20
2018-06-21T15:42:30.234Z,50.90
2018-06-21T15:46:33.898Z,48.80
2018-06-21T15:50:38.752Z,53.30
2018-06-21T15:54:42.342Z,53.80
2018-06-21T15:58:46.156Z,54.70
2018-06-21T16:02:50.232Z,52.20
2018-06-21T16:06:54.202Z,51.60
2018-06-21T16:10:58.642Z,52.60
2018-06-21T16:15:07.592Z,53.30
2018-06-21T16:19:11.366Z,52.10
2018-06-21T16:23:15.410Z,52.80
2018-06-21T16:27:25.656Z,53.40
2018-06-21T16:31:29.317Z,54.10
2018-06-21T16:35:33.619Z,53.20
2018-06-21T16:39:38.680Z,54.00
2018-06-21T16:43:42.759Z,55.00
2018-06-21T16:47:47.059Z,54.50
2018-06-21T16:51:51.536Z,52.80
2018-06-21T16:56:05.379Z,56.20
2018-06-21T17:00:16.107Z,46.90
2018-06-21T17:04:35.542Z,58.10
2018-06-21T17:08:40.623Z,54.80
2018-06-21T17:12:45.496Z,52.60
2018-06-21T17:16:53.074Z,52.50
2018-06-21T17:21:03.535Z,56.30
2018-06-21T17:25:08.423Z,52.30
2018-06-21T17:29:14.742Z,58.60
2018-06-21T17:33:18.598Z,57.50
2018-06-21T17:37:22.479Z,59.70
2018-06-21T17:41:36.625Z,59.70
2018-06-21T17:45:46.491Z,57.10
2018-06-21T17:49:50.284Z,58.10
2018-06-21T17:53:53.807Z,56.50
2018-06-21T17:57:59.594Z,58.10
2018-06-21T18:02:14.475Z,59.20
2018-06-21T18:06:18.188Z,55.80
2018-06-21T18:10:22.214Z,52.70
2018-06-21T18:14:25.927Z,57.90
2018-06-21T18:18:29.544Z,53.70
2018-06-21T18:22:33.263Z,60.50
2018-06-21T18:26:36.857Z,56.80
2018-06-21T18:30:42.243Z,55.60
2018-06-21T18:34:46.502Z,60.80
2018-06-21T18:38:50.935Z,55.90
2018-06-21T18:42:54.642Z,58.30
2018-06-21T18:46:58.349Z,55.90
2018-06-21T18:51:05.810Z,56.90
2018-06-21T18:55:09.515Z,61.40
2018-06-21T18:59:14.540Z,54.90
2018-06-21T19:03:18.866Z,59.70
2018-06-21T19:07:28.038Z,53.20
2018-06-21T19:15:46.302Z,56.30
2018-06-21T19:19:52.316Z,59.10
2018-06-21T19:24:01.358Z,55.10
2018-06-21T19:28:07.594Z,53.70
2018-06-21T19:32:11.237Z,54.60
2018-06-21T19:36:15.334Z,57.50
2018-06-21T19:40:19.119Z,57.00
2018-06-21T19:44:22.983Z,61.20
2018-06-21T19:48:27.792Z,56.60
2018-06-21T19:52:33.368Z,62.50
2018-06-21T19:56:36.923Z,56.30
2018-06-21T20:00:44.020Z,54.60
2018-06-21T20:04:50.431Z,57.60
2018-06-21T20:08:54.656Z,55.00
2018-06-21T20:13:02.443Z,54.60
2018-06-21T20:17:06.709Z,58.80
2018-06-21T20:21:13.786Z,59.10
2018-06-21T20:25:21.519Z,60.50
2018-06-21T20:29:25.936Z,58.40
2018-06-21T20:33:31.770Z,58.60
2018-06-21T20:37:35.861Z,59.00
2018-06-21T20:41:39.997Z,57.20
2018-06-21T20:45:50.970Z,55.70
2018-06-21T20:49:54.786Z,56.90
2018-06-21T20:54:02.695Z,58.50
2018-06-21T20:58:06.369Z,58.60
2018-06-21T21:06:13.207Z,64.20
2018-06-21T21:10:18.188Z,58.80
2018-06-21T21:14:22.354Z,64.40
2018-06-21T21:18:27.993Z,64.80
2018-06-21T21:22:31.594Z,63.90
2018-06-21T21:26:37.386Z,63.90
2018-06-21T21:30:46.266Z,63.30
2018-06-21T21:34:49.944Z,65.10
2018-06-21T21:38:53.674Z,65.50
2018-06-21T21:42:57.177Z,65.20
2018-06-21T21:47:02.776Z,60.90
2018-06-21T21:51:06.498Z,64.40
2018-06-21T21:55:10.844Z,63.30
2018-06-21T21:59:15.096Z,63.50
2018-06-21T22:03:18.992Z,67.30
2018-06-21T22:07:22.583Z,62.30
2018-06-21T22:11:44.768Z,68.30
2018-06-21T22:15:49.128Z,67.50
2018-06-21T22:19:52.879Z,61.00
2018-06-21T22:23:56.530Z,59.50
2018-06-21T22:28:06.515Z,64.20
2018-06-21T22:32:10.036Z,68.40
2018-06-21T22:36:14.904Z,58.90
2018-06-21T22:40:18.932Z,65.70
2018-06-21T22:44:22.614Z,63.20
2018-06-21T22:48:28.226Z,63.10
2018-06-21T22:52:32.187Z,62.00
2018-06-21T22:56:36.359Z,71.40
2018-06-21T23:00:40.286Z,60.80
2018-06-21T23:04:44.098Z,65.20
2018-06-21T23:08:48.060Z,63.30
2018-06-21T23:12:51.739Z,64.10
2018-06-21T23:16:56.492Z,62.50
2018-06-21T23:21:00.000Z,64.00
2018-06-21T23:25:04.573Z,63.00
2018-06-21T23:29:09.446Z,65.00
2018-06-21T23:33:13.370Z,65.10
2018-06-21T23:37:17.268Z,66.20
2018-06-21T23:41:21.111Z,64.10
2018-06-21T23:45:24.644Z,64.70
2018-06-21T23:49:33.784Z,72.80
2018-06-21T23:53:37.310Z,70.10
2018-06-21T23:57:40.837Z,64.50
